Grand Canyon National Park, AZ

12:14 PM MST on February 11, 2016 (GMT -0700)
KAZGRAND3 | | Change Station
CLOSE
Current Station
Personal Weather Station
Location: Grand Canyon, AZ
Elevation: 6991 ft
Nearby Weather Stations

Elev 6991 ft 36.05 °N, 112.12 °W | Updated 2 seconds ago

Clear
Clear
59.7 °F
Feels Like 59.7 °F
N
0.0
Wind Variable Wind from ENE
Gusts 5.0 mph

Today
High -- | Low -- °F
--% Chance of Precip.
Yesterday
High -- | Low -- °F
Precip. -- in
Pressure 30.31 in
Visibility 10.0 miles
Clouds Clear
Dew Point 7 °F
Humidity 12%
Rainfall 0.00 in
Snow Depth Not available.
7:20 AM 6:05 PM
Waxing Crescent, 14% visible
METAR KGCN 111854Z 05003KT 10SM CLR 17/M14 A3041 RMK AO2 SLP263 T01721139
Pressure 30.31 in
Visibility 10.0 miles
Clouds Clear
Dew Point 7 °F
Humidity 12%
Rainfall 0.00 in
Snow Depth Not available.
7:20 AM 6:05 PM
Waxing Crescent, 14% visible
METAR KGCN 111854Z 05003KT 10SM CLR 17/M14 A3041 RMK AO2 SLP263 T01721139

10-Day Weather Forecast

Almanac

Astronomy

Feb. 11, 2016 Rise Set
Actual Time
Civil Twilight
Nautical Twilight
Astronomical Twilight
Moon
Length of Visible Light
Length of Day
Tomorrow will be .
, % of the Moon is Illuminated

Today's Extremes

State Highs State Lows

Community

WunderPhotos

Upload Photos

1,892,141 photos uploaded!

WunderBlog® & News

Nearby

Air Quality

  Air Quality AQ Index Pollutant
Not available.

Snow Depth

Station Depth Elevation

Earthquake Activity

City Distance Mag. Time & Date
Minimum magnitude displayed is 2.5.

Coastal Water Temperatures

Place Temperature

Stations

Nearby Weather Stations

Station Location Temp. Windchill Dew Point Humidity Wind Precip. Elev Updated Type
                   

Watches & Warnings

There are currently no watches in effect.